sensor_id;sensor_type;location;lat;lon;timestamp;P1;durP1;ratioP1;P2;durP2;ratioP2
46158;SDS011;31888;44.512;26.104;2023-03-14T00:01:24;18.85;;;8.32;;
46158;SDS011;31888;44.512;26.104;2023-03-14T00:03:49;18.50;;;9.63;;
46158;SDS011;31888;44.512;26.104;2023-03-14T00:06:14;22.75;;;12.38;;
46158;SDS011;31888;44.512;26.104;2023-03-14T00:08:40;24.00;;;12.00;;
46158;SDS011;31888;44.512;26.104;2023-03-14T00:11:06;21.77;;;11.70;;
46158;SDS011;31888;44.512;26.104;2023-03-14T00:13:31;21.25;;;10.77;;
46158;SDS011;31888;44.512;26.104;2023-03-14T00:16:01;21.42;;;10.85;;
46158;SDS011;31888;44.512;26.104;2023-03-14T00:18:28;15.70;;;9.93;;
46158;SDS011;31888;44.512;26.104;2023-03-14T00:20:52;23.25;;;12.40;;
46158;SDS011;31888;44.512;26.104;2023-03-14T00:23:17;24.98;;;12.55;;
46158;SDS011;31888;44.512;26.104;2023-03-14T00:25:41;20.23;;;11.70;;
46158;SDS011;31888;44.512;26.104;2023-03-14T00:28:05;30.10;;;13.25;;
46158;SDS011;31888;44.512;26.104;2023-03-14T00:30:30;34.28;;;14.30;;
46158;SDS011;31888;44.512;26.104;2023-03-14T00:32:54;28.00;;;15.50;;
46158;SDS011;31888;44.512;26.104;2023-03-14T00:35:20;28.20;;;15.15;;
46158;SDS011;31888;44.512;26.104;2023-03-14T00:37:44;27.45;;;15.02;;
46158;SDS011;31888;44.512;26.104;2023-03-14T00:40:09;26.08;;;14.45;;
46158;SDS011;31888;44.512;26.104;2023-03-14T00:42:34;27.15;;;14.65;;
46158;SDS011;31888;44.512;26.104;2023-03-14T00:44:59;30.98;;;15.38;;
46158;SDS011;31888;44.512;26.104;2023-03-14T00:47:24;28.15;;;14.60;;
46158;SDS011;31888;44.512;26.104;2023-03-14T00:49:48;26.05;;;13.48;;
46158;SDS011;31888;44.512;26.104;2023-03-14T00:52:15;23.20;;;12.95;;
46158;SDS011;31888;44.512;26.104;2023-03-14T00:54:39;24.15;;;13.43;;
46158;SDS011;31888;44.512;26.104;2023-03-14T00:57:04;26.58;;;13.07;;
46158;SDS011;31888;44.512;26.104;2023-03-14T00:59:28;24.15;;;13.15;;
46158;SDS011;31888;44.512;26.104;2023-03-14T01:01:53;30.88;;;16.17;;
46158;SDS011;31888;44.512;26.104;2023-03-14T01:04:17;31.27;;;14.95;;
46158;SDS011;31888;44.512;26.104;2023-03-14T01:06:42;28.88;;;14.35;;
46158;SDS011;31888;44.512;26.104;2023-03-14T01:09:07;23.67;;;13.18;;
46158;SDS011;31888;44.512;26.104;2023-03-14T01:11:33;25.15;;;12.60;;
46158;SDS011;31888;44.512;26.104;2023-03-14T01:13:59;23.45;;;11.45;;
46158;SDS011;31888;44.512;26.104;2023-03-14T01:16:25;20.63;;;12.07;;
46158;SDS011;31888;44.512;26.104;2023-03-14T01:18:50;20.73;;;12.18;;
46158;SDS011;31888;44.512;26.104;2023-03-14T01:21:16;23.10;;;11.70;;
46158;SDS011;31888;44.512;26.104;2023-03-14T01:23:43;22.38;;;11.95;;
46158;SDS011;31888;44.512;26.104;2023-03-14T01:26:10;19.08;;;11.18;;
46158;SDS011;31888;44.512;26.104;2023-03-14T01:28:36;22.48;;;12.18;;
46158;SDS011;31888;44.512;26.104;2023-03-14T01:31:02;27.00;;;11.63;;
46158;SDS011;31888;44.512;26.104;2023-03-14T01:33:28;23.20;;;11.48;;
46158;SDS011;31888;44.512;26.104;2023-03-14T01:35:52;21.20;;;11.43;;
46158;SDS011;31888;44.512;26.104;2023-03-14T01:38:17;24.30;;;12.30;;
46158;SDS011;31888;44.512;26.104;2023-03-14T01:40:44;19.70;;;11.15;;
46158;SDS011;31888;44.512;26.104;2023-03-14T01:43:15;21.65;;;11.52;;
46158;SDS011;31888;44.512;26.104;2023-03-14T01:48:45;22.67;;;12.60;;
46158;SDS011;31888;44.512;26.104;2023-03-14T01:51:14;19.85;;;12.00;;
46158;SDS011;31888;44.512;26.104;2023-03-14T01:53:43;22.70;;;11.75;;
46158;SDS011;31888;44.512;26.104;2023-03-14T01:56:09;24.13;;;12.13;;
46158;SDS011;31888;44.512;26.104;2023-03-14T01:58:38;21.23;;;12.05;;
46158;SDS011;31888;44.512;26.104;2023-03-14T02:01:05;29.15;;;12.25;;
46158;SDS011;31888;44.512;26.104;2023-03-14T02:03:34;25.02;;;11.75;;
46158;SDS011;31888;44.512;26.104;2023-03-14T02:08:32;23.58;;;12.00;;
46158;SDS011;31888;44.512;26.104;2023-03-14T02:13:54;24.45;;;12.02;;
46158;SDS011;31888;44.512;26.104;2023-03-14T02:16:41;26.17;;;12.73;;
46158;SDS011;31888;44.512;26.104;2023-03-14T02:19:36;26.33;;;11.88;;
46158;SDS011;31888;44.512;26.104;2023-03-14T02:22:29;24.33;;;13.60;;
46158;SDS011;31888;44.512;26.104;2023-03-14T02:24:59;26.27;;;13.07;;
46158;SDS011;31888;44.512;26.104;2023-03-14T02:27:31;33.55;;;14.15;;
46158;SDS011;31888;44.512;26.104;2023-03-14T02:29:57;21.02;;;11.82;;
46158;SDS011;31888;44.512;26.104;2023-03-14T02:32:25;24.58;;;12.45;;
46158;SDS011;31888;44.512;26.104;2023-03-14T02:34:52;26.58;;;13.00;;
46158;SDS011;31888;44.512;26.104;2023-03-14T02:37:20;22.30;;;11.33;;
46158;SDS011;31888;44.512;26.104;2023-03-14T02:39:47;30.30;;;12.15;;
46158;SDS011;31888;44.512;26.104;2023-03-14T02:42:13;29.58;;;12.90;;
46158;SDS011;31888;44.512;26.104;2023-03-14T02:44:48;26.38;;;13.57;;
46158;SDS011;31888;44.512;26.104;2023-03-14T02:47:15;22.83;;;13.48;;
46158;SDS011;31888;44.512;26.104;2023-03-14T02:49:40;25.85;;;12.93;;
46158;SDS011;31888;44.512;26.104;2023-03-14T02:52:05;26.23;;;13.50;;
46158;SDS011;31888;44.512;26.104;2023-03-14T02:54:30;28.98;;;13.60;;
46158;SDS011;31888;44.512;26.104;2023-03-14T02:56:55;33.17;;;12.82;;
46158;SDS011;31888;44.512;26.104;2023-03-14T02:59:19;28.33;;;14.02;;
46158;SDS011;31888;44.512;26.104;2023-03-14T03:01:53;33.78;;;15.13;;
46158;SDS011;31888;44.512;26.104;2023-03-14T03:04:18;22.38;;;12.70;;
46158;SDS011;31888;44.512;26.104;2023-03-14T03:06:43;22.85;;;12.02;;
46158;SDS011;31888;44.512;26.104;2023-03-14T03:09:08;26.15;;;13.55;;
46158;SDS011;31888;44.512;26.104;2023-03-14T03:11:32;27.25;;;13.27;;
46158;SDS011;31888;44.512;26.104;2023-03-14T03:13:58;33.67;;;14.35;;
46158;SDS011;31888;44.512;26.104;2023-03-14T03:16:24;29.48;;;14.60;;
46158;SDS011;31888;44.512;26.104;2023-03-14T03:18:50;30.15;;;15.30;;
46158;SDS011;31888;44.512;26.104;2023-03-14T03:21:15;28.70;;;13.32;;
46158;SDS011;31888;44.512;26.104;2023-03-14T03:23:41;29.50;;;14.10;;
46158;SDS011;31888;44.512;26.104;2023-03-14T03:26:06;25.10;;;12.07;;
46158;SDS011;31888;44.512;26.104;2023-03-14T03:28:32;27.85;;;13.35;;
46158;SDS011;31888;44.512;26.104;2023-03-14T03:30:57;21.95;;;11.75;;
46158;SDS011;31888;44.512;26.104;2023-03-14T03:33:23;28.20;;;12.50;;
46158;SDS011;31888;44.512;26.104;2023-03-14T03:35:50;25.67;;;12.68;;
46158;SDS011;31888;44.512;26.104;2023-03-14T03:38:22;23.02;;;11.65;;
46158;SDS011;31888;44.512;26.104;2023-03-14T03:40:49;26.17;;;12.48;;
46158;SDS011;31888;44.512;26.104;2023-03-14T03:43:14;21.38;;;11.20;;
46158;SDS011;31888;44.512;26.104;2023-03-14T03:45:40;22.25;;;11.45;;
46158;SDS011;31888;44.512;26.104;2023-03-14T03:48:05;21.25;;;10.88;;
46158;SDS011;31888;44.512;26.104;2023-03-14T03:50:29;21.25;;;9.60;;
46158;SDS011;31888;44.512;26.104;2023-03-14T03:52:55;20.75;;;10.02;;
46158;SDS011;31888;44.512;26.104;2023-03-14T03:55:20;19.15;;;10.05;;
46158;SDS011;31888;44.512;26.104;2023-03-14T03:57:44;23.35;;;10.75;;
46158;SDS011;31888;44.512;26.104;2023-03-14T04:00:09;19.42;;;10.02;;
46158;SDS011;31888;44.512;26.104;2023-03-14T04:02:37;21.25;;;11.25;;
46158;SDS011;31888;44.512;26.104;2023-03-14T04:05:05;26.23;;;10.25;;
46158;SDS011;31888;44.512;26.104;2023-03-14T04:07:31;21.35;;;10.20;;
46158;SDS011;31888;44.512;26.104;2023-03-14T04:09:58;20.17;;;10.18;;
46158;SDS011;31888;44.512;26.104;2023-03-14T04:12:34;16.02;;;9.07;;
46158;SDS011;31888;44.512;26.104;2023-03-14T04:15:02;22.25;;;10.38;;
46158;SDS011;31888;44.512;26.104;2023-03-14T04:17:28;18.27;;;9.65;;
46158;SDS011;31888;44.512;26.104;2023-03-14T04:19:52;21.08;;;10.70;;
46158;SDS011;31888;44.512;26.104;2023-03-14T04:22:24;20.95;;;9.82;;
46158;SDS011;31888;44.512;26.104;2023-03-14T04:24:49;20.65;;;9.35;;
46158;SDS011;31888;44.512;26.104;2023-03-14T04:27:17;19.67;;;9.18;;
46158;SDS011;31888;44.512;26.104;2023-03-14T04:29:42;19.63;;;10.43;;
46158;SDS011;31888;44.512;26.104;2023-03-14T04:32:10;21.42;;;9.65;;
46158;SDS011;31888;44.512;26.104;2023-03-14T04:34:35;20.00;;;8.85;;
46158;SDS011;31888;44.512;26.104;2023-03-14T04:36:59;19.67;;;9.75;;
46158;SDS011;31888;44.512;26.104;2023-03-14T04:39:30;24.92;;;9.52;;
46158;SDS011;31888;44.512;26.104;2023-03-14T04:42:03;15.10;;;8.60;;
46158;SDS011;31888;44.512;26.104;2023-03-14T04:44:32;19.70;;;9.10;;
46158;SDS011;31888;44.512;26.104;2023-03-14T04:46:57;16.55;;;8.80;;
46158;SDS011;31888;44.512;26.104;2023-03-14T04:49:22;17.67;;;8.50;;
46158;SDS011;31888;44.512;26.104;2023-03-14T04:51:46;18.33;;;9.98;;
46158;SDS011;31888;44.512;26.104;2023-03-14T04:54:13;20.23;;;9.45;;
46158;SDS011;31888;44.512;26.104;2023-03-14T04:56:38;16.25;;;8.32;;
46158;SDS011;31888;44.512;26.104;2023-03-14T04:59:03;22.70;;;9.23;;
46158;SDS011;31888;44.512;26.104;2023-03-14T05:01:32;26.85;;;11.98;;
46158;SDS011;31888;44.512;26.104;2023-03-14T05:04:14;27.70;;;12.43;;
46158;SDS011;31888;44.512;26.104;2023-03-14T05:07:06;25.17;;;12.70;;
46158;SDS011;31888;44.512;26.104;2023-03-14T05:09:42;27.77;;;14.30;;
46158;SDS011;31888;44.512;26.104;2023-03-14T05:12:20;31.63;;;14.15;;
46158;SDS011;31888;44.512;26.104;2023-03-14T05:15:04;30.73;;;13.95;;
46158;SDS011;31888;44.512;26.104;2023-03-14T05:17:44;25.88;;;13.88;;
46158;SDS011;31888;44.512;26.104;2023-03-14T05:20:31;28.70;;;14.55;;
46158;SDS011;31888;44.512;26.104;2023-03-14T05:23:24;28.95;;;14.32;;
46158;SDS011;31888;44.512;26.104;2023-03-14T05:26:07;30.83;;;14.38;;
46158;SDS011;31888;44.512;26.104;2023-03-14T05:28:51;27.73;;;13.55;;
46158;SDS011;31888;44.512;26.104;2023-03-14T05:31:31;23.33;;;12.82;;
46158;SDS011;31888;44.512;26.104;2023-03-14T05:34:06;24.30;;;12.75;;
46158;SDS011;31888;44.512;26.104;2023-03-14T05:37:06;34.08;;;12.70;;
46158;SDS011;31888;44.512;26.104;2023-03-14T05:39:41;32.13;;;11.73;;
46158;SDS011;31888;44.512;26.104;2023-03-14T05:42:38;24.13;;;11.40;;
46158;SDS011;31888;44.512;26.104;2023-03-14T05:45:22;18.38;;;10.52;;
46158;SDS011;31888;44.512;26.104;2023-03-14T05:48:10;23.45;;;11.75;;
46158;SDS011;31888;44.512;26.104;2023-03-14T05:50:55;20.88;;;10.70;;
46158;SDS011;31888;44.512;26.104;2023-03-14T05:53:38;23.08;;;10.88;;
46158;SDS011;31888;44.512;26.104;2023-03-14T05:56:26;20.60;;;10.52;;
46158;SDS011;31888;44.512;26.104;2023-03-14T05:59:13;22.70;;;11.38;;
46158;SDS011;31888;44.512;26.104;2023-03-14T06:01:53;19.23;;;10.68;;
46158;SDS011;31888;44.512;26.104;2023-03-14T06:04:21;20.02;;;10.55;;
46158;SDS011;31888;44.512;26.104;2023-03-14T06:06:52;18.27;;;10.25;;
46158;SDS011;31888;44.512;26.104;2023-03-14T06:09:19;23.10;;;10.68;;
46158;SDS011;31888;44.512;26.104;2023-03-14T06:11:47;21.45;;;9.68;;
46158;SDS011;31888;44.512;26.104;2023-03-14T06:14:12;21.08;;;9.52;;
46158;SDS011;31888;44.512;26.104;2023-03-14T06:16:40;19.52;;;10.05;;
46158;SDS011;31888;44.512;26.104;2023-03-14T06:19:06;16.17;;;10.00;;
46158;SDS011;31888;44.512;26.104;2023-03-14T06:21:32;17.63;;;10.05;;
46158;SDS011;31888;44.512;26.104;2023-03-14T06:23:58;16.38;;;8.90;;
46158;SDS011;31888;44.512;26.104;2023-03-14T06:26:25;17.88;;;8.45;;
46158;SDS011;31888;44.512;26.104;2023-03-14T06:28:50;17.73;;;6.97;;
46158;SDS011;31888;44.512;26.104;2023-03-14T06:31:16;12.25;;;8.15;;
46158;SDS011;31888;44.512;26.104;2023-03-14T06:33:47;13.52;;;7.78;;
46158;SDS011;31888;44.512;26.104;2023-03-14T06:36:13;13.38;;;7.93;;
46158;SDS011;31888;44.512;26.104;2023-03-14T06:38:40;16.23;;;7.20;;
46158;SDS011;31888;44.512;26.104;2023-03-14T06:41:06;15.82;;;8.05;;
46158;SDS011;31888;44.512;26.104;2023-03-14T06:43:38;17.45;;;8.07;;
46158;SDS011;31888;44.512;26.104;2023-03-14T06:46:03;16.75;;;8.13;;
46158;SDS011;31888;44.512;26.104;2023-03-14T06:48:30;10.15;;;6.13;;
46158;SDS011;31888;44.512;26.104;2023-03-14T06:50:56;14.45;;;7.32;;
46158;SDS011;31888;44.512;26.104;2023-03-14T06:53:20;10.57;;;6.30;;
46158;SDS011;31888;44.512;26.104;2023-03-14T06:55:46;11.00;;;6.28;;
46158;SDS011;31888;44.512;26.104;2023-03-14T06:58:14;18.15;;;7.30;;
46158;SDS011;31888;44.512;26.104;2023-03-14T07:00:40;14.15;;;6.85;;
46158;SDS011;31888;44.512;26.104;2023-03-14T07:03:07;12.77;;;7.32;;
46158;SDS011;31888;44.512;26.104;2023-03-14T07:05:37;19.10;;;7.50;;
46158;SDS011;31888;44.512;26.104;2023-03-14T07:08:03;23.42;;;8.85;;
46158;SDS011;31888;44.512;26.104;2023-03-14T07:10:28;13.82;;;7.75;;
46158;SDS011;31888;44.512;26.104;2023-03-14T07:12:53;17.98;;;8.02;;
46158;SDS011;31888;44.512;26.104;2023-03-14T07:15:22;19.17;;;7.30;;
46158;SDS011;31888;44.512;26.104;2023-03-14T07:17:52;15.73;;;7.18;;
46158;SDS011;31888;44.512;26.104;2023-03-14T07:20:18;12.50;;;6.13;;
46158;SDS011;31888;44.512;26.104;2023-03-14T07:22:43;18.73;;;7.95;;
46158;SDS011;31888;44.512;26.104;2023-03-14T07:25:16;12.40;;;7.20;;
46158;SDS011;31888;44.512;26.104;2023-03-14T07:27:42;19.05;;;7.30;;
46158;SDS011;31888;44.512;26.104;2023-03-14T07:30:07;15.25;;;6.70;;
46158;SDS011;31888;44.512;26.104;2023-03-14T07:32:34;12.63;;;6.68;;
46158;SDS011;31888;44.512;26.104;2023-03-14T07:34:59;17.17;;;7.05;;
46158;SDS011;31888;44.512;26.104;2023-03-14T07:37:24;14.55;;;7.07;;
46158;SDS011;31888;44.512;26.104;2023-03-14T07:39:49;16.38;;;7.30;;
46158;SDS011;31888;44.512;26.104;2023-03-14T07:42:17;12.13;;;7.07;;
46158;SDS011;31888;44.512;26.104;2023-03-14T07:45:03;18.60;;;6.78;;
46158;SDS011;31888;44.512;26.104;2023-03-14T07:47:29;10.10;;;6.65;;
46158;SDS011;31888;44.512;26.104;2023-03-14T07:49:55;16.60;;;6.32;;
46158;SDS011;31888;44.512;26.104;2023-03-14T07:52:19;11.32;;;5.90;;
46158;SDS011;31888;44.512;26.104;2023-03-14T07:54:44;12.32;;;5.90;;
46158;SDS011;31888;44.512;26.104;2023-03-14T07:57:08;11.40;;;5.25;;
46158;SDS011;31888;44.512;26.104;2023-03-14T07:59:33;16.35;;;6.47;;
46158;SDS011;31888;44.512;26.104;2023-03-14T08:01:57;9.48;;;5.53;;
46158;SDS011;31888;44.512;26.104;2023-03-14T08:04:22;11.13;;;5.13;;
46158;SDS011;31888;44.512;26.104;2023-03-14T08:06:48;7.68;;;5.10;;
46158;SDS011;31888;44.512;26.104;2023-03-14T08:09:12;12.20;;;5.65;;
46158;SDS011;31888;44.512;26.104;2023-03-14T08:11:37;13.38;;;6.05;;
46158;SDS011;31888;44.512;26.104;2023-03-14T08:14:02;13.35;;;6.30;;
46158;SDS011;31888;44.512;26.104;2023-03-14T08:16:26;10.93;;;6.32;;
46158;SDS011;31888;44.512;26.104;2023-03-14T08:18:51;11.98;;;5.45;;
46158;SDS011;31888;44.512;26.104;2023-03-14T08:21:15;11.70;;;5.38;;
46158;SDS011;31888;44.512;26.104;2023-03-14T08:23:42;12.50;;;5.82;;
46158;SDS011;31888;44.512;26.104;2023-03-14T08:26:06;10.20;;;5.25;;
46158;SDS011;31888;44.512;26.104;2023-03-14T08:28:31;12.73;;;6.40;;
46158;SDS011;31888;44.512;26.104;2023-03-14T08:30:55;12.27;;;6.15;;
46158;SDS011;31888;44.512;26.104;2023-03-14T08:33:21;10.52;;;5.28;;
46158;SDS011;31888;44.512;26.104;2023-03-14T08:35:45;19.30;;;5.97;;
46158;SDS011;31888;44.512;26.104;2023-03-14T08:38:10;16.55;;;6.38;;
46158;SDS011;31888;44.512;26.104;2023-03-14T08:40:36;10.90;;;5.40;;
46158;SDS011;31888;44.512;26.104;2023-03-14T08:43:01;11.80;;;5.68;;
46158;SDS011;31888;44.512;26.104;2023-03-14T08:45:25;9.43;;;5.32;;
46158;SDS011;31888;44.512;26.104;2023-03-14T08:47:50;11.45;;;5.70;;
46158;SDS011;31888;44.512;26.104;2023-03-14T08:50:15;13.20;;;6.63;;
46158;SDS011;31888;44.512;26.104;2023-03-14T08:52:39;10.27;;;6.00;;
46158;SDS011;31888;44.512;26.104;2023-03-14T08:55:04;10.18;;;5.97;;
46158;SDS011;31888;44.512;26.104;2023-03-14T08:57:31;12.25;;;5.85;;
46158;SDS011;31888;44.512;26.104;2023-03-14T08:59:55;14.52;;;5.80;;
46158;SDS011;31888;44.512;26.104;2023-03-14T09:02:20;8.60;;;5.68;;
46158;SDS011;31888;44.512;26.104;2023-03-14T09:04:45;12.27;;;5.95;;
46158;SDS011;31888;44.512;26.104;2023-03-14T09:07:09;13.65;;;5.93;;
46158;SDS011;31888;44.512;26.104;2023-03-14T09:09:34;14.90;;;5.88;;
46158;SDS011;31888;44.512;26.104;2023-03-14T09:11:58;10.13;;;5.80;;
46158;SDS011;31888;44.512;26.104;2023-03-14T09:14:24;12.45;;;6.47;;
46158;SDS011;31888;44.512;26.104;2023-03-14T09:16:49;10.43;;;6.15;;
46158;SDS011;31888;44.512;26.104;2023-03-14T09:19:14;13.10;;;6.15;;
46158;SDS011;31888;44.512;26.104;2023-03-14T09:21:39;10.00;;;5.97;;
46158;SDS011;31888;44.512;26.104;2023-03-14T09:24:03;11.57;;;6.30;;
46158;SDS011;31888;44.512;26.104;2023-03-14T09:26:28;10.70;;;6.22;;
46158;SDS011;31888;44.512;26.104;2023-03-14T09:28:53;9.68;;;5.20;;
46158;SDS011;31888;44.512;26.104;2023-03-14T09:31:21;7.75;;;5.57;;
46158;SDS011;31888;44.512;26.104;2023-03-14T09:33:46;13.15;;;6.10;;
46158;SDS011;31888;44.512;26.104;2023-03-14T09:36:10;11.23;;;5.03;;
46158;SDS011;31888;44.512;26.104;2023-03-14T09:38:35;9.45;;;5.93;;
46158;SDS011;31888;44.512;26.104;2023-03-14T09:41:00;18.75;;;5.63;;
46158;SDS011;31888;44.512;26.104;2023-03-14T09:43:26;11.50;;;5.88;;
46158;SDS011;31888;44.512;26.104;2023-03-14T09:45:55;10.52;;;5.90;;
46158;SDS011;31888;44.512;26.104;2023-03-14T09:48:24;10.65;;;5.90;;
46158;SDS011;31888;44.512;26.104;2023-03-14T09:50:54;9.82;;;5.60;;
46158;SDS011;31888;44.512;26.104;2023-03-14T10:11:27;14.13;;;7.80;;
46158;SDS011;31888;44.512;26.104;2023-03-14T10:14:03;7.45;;;5.25;;
46158;SDS011;31888;44.512;26.104;2023-03-14T10:16:30;9.13;;;4.75;;
46158;SDS011;31888;44.512;26.104;2023-03-14T10:19:00;17.00;;;6.57;;
46158;SDS011;31888;44.512;26.104;2023-03-14T10:21:27;12.93;;;5.30;;
46158;SDS011;31888;44.512;26.104;2023-03-14T10:24:06;12.32;;;4.53;;
46158;SDS011;31888;44.512;26.104;2023-03-14T10:26:43;11.50;;;4.40;;
46158;SDS011;31888;44.512;26.104;2023-03-14T10:29:11;8.35;;;4.45;;
46158;SDS011;31888;44.512;26.104;2023-03-14T10:31:45;11.02;;;4.38;;
46158;SDS011;31888;44.512;26.104;2023-03-14T10:34:17;13.73;;;4.82;;
46158;SDS011;31888;44.512;26.104;2023-03-14T10:36:46;7.13;;;4.15;;
46158;SDS011;31888;44.512;26.104;2023-03-14T10:39:25;10.38;;;4.63;;
46158;SDS011;31888;44.512;26.104;2023-03-14T10:41:54;6.47;;;3.55;;
46158;SDS011;31888;44.512;26.104;2023-03-14T10:44:25;7.72;;;3.60;;
46158;SDS011;31888;44.512;26.104;2023-03-14T10:46:55;4.18;;;3.00;;
46158;SDS011;31888;44.512;26.104;2023-03-14T10:49:26;7.03;;;2.22;;
46158;SDS011;31888;44.512;26.104;2023-03-14T10:51:52;8.43;;;2.97;;
46158;SDS011;31888;44.512;26.104;2023-03-14T10:54:19;3.75;;;2.70;;
46158;SDS011;31888;44.512;26.104;2023-03-14T10:56:47;8.80;;;3.40;;
46158;SDS011;31888;44.512;26.104;2023-03-14T10:59:21;6.95;;;3.20;;
46158;SDS011;31888;44.512;26.104;2023-03-14T11:01:47;7.63;;;3.30;;
46158;SDS011;31888;44.512;26.104;2023-03-14T11:04:21;10.15;;;3.97;;
46158;SDS011;31888;44.512;26.104;2023-03-14T11:07:03;8.25;;;3.63;;
46158;SDS011;31888;44.512;26.104;2023-03-14T11:09:34;6.78;;;2.80;;
46158;SDS011;31888;44.512;26.104;2023-03-14T11:12:08;7.82;;;2.90;;
46158;SDS011;31888;44.512;26.104;2023-03-14T11:14:49;7.97;;;2.65;;
46158;SDS011;31888;44.512;26.104;2023-03-14T11:17:23;6.15;;;2.78;;
46158;SDS011;31888;44.512;26.104;2023-03-14T11:19:56;4.32;;;2.60;;
46158;SDS011;31888;44.512;26.104;2023-03-14T11:22:35;7.75;;;2.90;;
46158;SDS011;31888;44.512;26.104;2023-03-14T11:25:06;6.18;;;2.50;;
46158;SDS011;31888;44.512;26.104;2023-03-14T11:38:10;5.38;;;2.55;;
46158;SDS011;31888;44.512;26.104;2023-03-14T11:40:38;8.30;;;2.70;;
46158;SDS011;31888;44.512;26.104;2023-03-14T11:43:06;7.97;;;3.28;;
46158;SDS011;31888;44.512;26.104;2023-03-14T11:45:38;5.60;;;2.88;;
46158;SDS011;31888;44.512;26.104;2023-03-14T11:48:13;7.00;;;2.63;;
46158;SDS011;31888;44.512;26.104;2023-03-14T11:50:41;3.95;;;2.58;;
46158;SDS011;31888;44.512;26.104;2023-03-14T11:53:11;5.45;;;2.78;;
46158;SDS011;31888;44.512;26.104;2023-03-14T11:55:40;4.32;;;3.05;;
46158;SDS011;31888;44.512;26.104;2023-03-14T11:58:09;6.05;;;2.72;;
46158;SDS011;31888;44.512;26.104;2023-03-14T12:00:39;6.45;;;3.17;;
46158;SDS011;31888;44.512;26.104;2023-03-14T12:03:09;8.77;;;3.20;;
46158;SDS011;31888;44.512;26.104;2023-03-14T12:05:39;7.35;;;2.78;;
46158;SDS011;31888;44.512;26.104;2023-03-14T12:08:22;7.70;;;3.22;;
46158;SDS011;31888;44.512;26.104;2023-03-14T12:11:18;5.63;;;2.80;;
46158;SDS011;31888;44.512;26.104;2023-03-14T12:13:47;4.70;;;2.60;;
46158;SDS011;31888;44.512;26.104;2023-03-14T12:16:22;6.88;;;2.97;;
46158;SDS011;31888;44.512;26.104;2023-03-14T12:18:53;6.05;;;2.63;;
46158;SDS011;31888;44.512;26.104;2023-03-14T12:21:18;6.60;;;2.60;;
46158;SDS011;31888;44.512;26.104;2023-03-14T12:23:44;7.80;;;2.50;;
46158;SDS011;31888;44.512;26.104;2023-03-14T12:26:14;5.43;;;2.47;;
46158;SDS011;31888;44.512;26.104;2023-03-14T12:28:42;9.45;;;2.60;;
46158;SDS011;31888;44.512;26.104;2023-03-14T12:34:01;6.55;;;2.30;;
46158;SDS011;31888;44.512;26.104;2023-03-14T12:36:48;6.03;;;2.10;;
46158;SDS011;31888;44.512;26.104;2023-03-14T12:39:27;7.57;;;2.58;;
46158;SDS011;31888;44.512;26.104;2023-03-14T12:42:01;9.23;;;2.42;;
46158;SDS011;31888;44.512;26.104;2023-03-14T12:44:46;8.05;;;2.22;;
46158;SDS011;31888;44.512;26.104;2023-03-14T12:50:26;5.88;;;1.95;;
46158;SDS011;31888;44.512;26.104;2023-03-14T12:53:08;9.48;;;2.10;;
46158;SDS011;31888;44.512;26.104;2023-03-14T12:55:48;4.40;;;2.40;;
46158;SDS011;31888;44.512;26.104;2023-03-14T12:58:21;3.17;;;2.08;;
46158;SDS011;31888;44.512;26.104;2023-03-14T13:00:54;5.20;;;1.88;;
46158;SDS011;31888;44.512;26.104;2023-03-14T13:03:21;4.97;;;1.90;;
46158;SDS011;31888;44.512;26.104;2023-03-14T13:05:54;6.45;;;2.33;;
46158;SDS011;31888;44.512;26.104;2023-03-14T13:08:32;6.30;;;2.30;;
46158;SDS011;31888;44.512;26.104;2023-03-14T13:11:05;11.27;;;2.53;;
46158;SDS011;31888;44.512;26.104;2023-03-14T13:13:35;3.03;;;2.13;;
46158;SDS011;31888;44.512;26.104;2023-03-14T13:16:04;11.70;;;4.15;;
46158;SDS011;31888;44.512;26.104;2023-03-14T13:18:32;4.97;;;2.17;;
46158;SDS011;31888;44.512;26.104;2023-03-14T13:20:59;4.05;;;1.85;;
46158;SDS011;31888;44.512;26.104;2023-03-14T13:23:27;5.20;;;1.80;;
46158;SDS011;31888;44.512;26.104;2023-03-14T13:25:53;6.82;;;2.75;;
46158;SDS011;31888;44.512;26.104;2023-03-14T13:28:19;4.03;;;1.90;;
46158;SDS011;31888;44.512;26.104;2023-03-14T13:30:45;5.82;;;1.92;;
46158;SDS011;31888;44.512;26.104;2023-03-14T13:33:12;4.55;;;1.70;;
46158;SDS011;31888;44.512;26.104;2023-03-14T13:35:39;3.25;;;1.70;;
46158;SDS011;31888;44.512;26.104;2023-03-14T13:38:16;3.25;;;2.00;;
46158;SDS011;31888;44.512;26.104;2023-03-14T13:40:42;3.30;;;1.60;;
46158;SDS011;31888;44.512;26.104;2023-03-14T13:43:13;4.20;;;1.42;;
46158;SDS011;31888;44.512;26.104;2023-03-14T13:45:48;3.28;;;1.48;;
46158;SDS011;31888;44.512;26.104;2023-03-14T13:48:14;10.00;;;1.90;;
46158;SDS011;31888;44.512;26.104;2023-03-14T13:50:39;3.90;;;1.42;;
46158;SDS011;31888;44.512;26.104;2023-03-14T13:53:15;3.58;;;1.50;;
46158;SDS011;31888;44.512;26.104;2023-03-14T13:55:40;5.60;;;1.60;;
46158;SDS011;31888;44.512;26.104;2023-03-14T13:58:04;2.83;;;1.60;;
46158;SDS011;31888;44.512;26.104;2023-03-14T14:03:18;2.78;;;1.40;;
46158;SDS011;31888;44.512;26.104;2023-03-14T14:05:43;6.43;;;1.90;;
46158;SDS011;31888;44.512;26.104;2023-03-14T14:08:10;7.30;;;1.60;;
46158;SDS011;31888;44.512;26.104;2023-03-14T14:10:36;2.55;;;1.40;;
46158;SDS011;31888;44.512;26.104;2023-03-14T14:13:01;2.88;;;1.35;;
46158;SDS011;31888;44.512;26.104;2023-03-14T14:15:29;5.53;;;1.10;;
46158;SDS011;31888;44.512;26.104;2023-03-14T14:17:58;5.47;;;1.50;;
46158;SDS011;31888;44.512;26.104;2023-03-14T14:20:28;2.40;;;1.30;;
46158;SDS011;31888;44.512;26.104;2023-03-14T14:22:57;3.78;;;1.27;;
46158;SDS011;31888;44.512;26.104;2023-03-14T14:25:23;2.78;;;1.30;;
46158;SDS011;31888;44.512;26.104;2023-03-14T14:27:48;5.70;;;2.00;;
46158;SDS011;31888;44.512;26.104;2023-03-14T14:33:11;3.72;;;1.30;;
46158;SDS011;31888;44.512;26.104;2023-03-14T14:35:44;5.03;;;2.00;;
46158;SDS011;31888;44.512;26.104;2023-03-14T14:38:16;3.40;;;1.35;;
46158;SDS011;31888;44.512;26.104;2023-03-14T14:40:45;7.53;;;1.85;;
46158;SDS011;31888;44.512;26.104;2023-03-14T14:43:12;8.55;;;1.80;;
46158;SDS011;31888;44.512;26.104;2023-03-14T14:45:44;2.58;;;1.23;;
46158;SDS011;31888;44.512;26.104;2023-03-14T14:48:13;2.40;;;1.20;;
46158;SDS011;31888;44.512;26.104;2023-03-14T14:50:38;6.43;;;1.60;;
46158;SDS011;31888;44.512;26.104;2023-03-14T14:53:18;3.22;;;1.55;;
46158;SDS011;31888;44.512;26.104;2023-03-14T14:55:49;6.28;;;1.50;;
46158;SDS011;31888;44.512;26.104;2023-03-14T14:58:17;2.25;;;1.40;;
46158;SDS011;31888;44.512;26.104;2023-03-14T15:00:49;5.40;;;1.90;;
46158;SDS011;31888;44.512;26.104;2023-03-14T15:03:16;16.70;;;2.30;;
46158;SDS011;31888;44.512;26.104;2023-03-14T15:05:41;3.75;;;1.50;;
46158;SDS011;31888;44.512;26.104;2023-03-14T15:08:09;4.65;;;1.80;;
46158;SDS011;31888;44.512;26.104;2023-03-14T15:10:34;4.45;;;2.10;;
46158;SDS011;31888;44.512;26.104;2023-03-14T15:12:58;4.20;;;1.75;;
46158;SDS011;31888;44.512;26.104;2023-03-14T15:15:23;4.82;;;1.45;;
46158;SDS011;31888;44.512;26.104;2023-03-14T15:17:47;3.50;;;1.17;;
46158;SDS011;31888;44.512;26.104;2023-03-14T15:20:12;3.20;;;1.65;;